sensor_id;sensor_type;location;lat;lon;timestamp;P1;durP1;ratioP1;P2;durP2;ratioP2
46721;SDS011;32455;43.430;23.136;2023-03-14T00:01:43;46.72;;;28.85;;
46721;SDS011;32455;43.430;23.136;2023-03-14T00:04:30;51.90;;;33.85;;
46721;SDS011;32455;43.430;23.136;2023-03-14T00:07:15;24.88;;;17.13;;
46721;SDS011;32455;43.430;23.136;2023-03-14T00:10:02;13.65;;;10.18;;
46721;SDS011;32455;43.430;23.136;2023-03-14T00:12:53;12.80;;;9.80;;
46721;SDS011;32455;43.430;23.136;2023-03-14T00:15:39;10.88;;;8.07;;
46721;SDS011;32455;43.430;23.136;2023-03-14T00:18:24;10.45;;;8.35;;
46721;SDS011;32455;43.430;23.136;2023-03-14T00:21:10;14.43;;;10.18;;
46721;SDS011;32455;43.430;23.136;2023-03-14T00:23:56;14.07;;;9.98;;
46721;SDS011;32455;43.430;23.136;2023-03-14T00:26:41;8.98;;;6.47;;
46721;SDS011;32455;43.430;23.136;2023-03-14T00:29:26;7.97;;;6.00;;
46721;SDS011;32455;43.430;23.136;2023-03-14T00:32:12;6.78;;;4.50;;
46721;SDS011;32455;43.430;23.136;2023-03-14T00:34:58;6.85;;;4.82;;
46721;SDS011;32455;43.430;23.136;2023-03-14T00:37:43;6.65;;;4.75;;
46721;SDS011;32455;43.430;23.136;2023-03-14T00:40:28;7.57;;;4.40;;
46721;SDS011;32455;43.430;23.136;2023-03-14T00:43:14;9.02;;;5.03;;
46721;SDS011;32455;43.430;23.136;2023-03-14T00:46:00;6.38;;;4.85;;
46721;SDS011;32455;43.430;23.136;2023-03-14T00:48:45;10.63;;;5.93;;
46721;SDS011;32455;43.430;23.136;2023-03-14T00:51:30;6.40;;;5.20;;
46721;SDS011;32455;43.430;23.136;2023-03-14T00:54:19;6.75;;;5.43;;
46721;SDS011;32455;43.430;23.136;2023-03-14T00:57:04;7.95;;;5.45;;
46721;SDS011;32455;43.430;23.136;2023-03-14T00:59:50;7.25;;;5.65;;
46721;SDS011;32455;43.430;23.136;2023-03-14T01:02:37;7.68;;;5.60;;
46721;SDS011;32455;43.430;23.136;2023-03-14T01:05:22;12.23;;;8.45;;
46721;SDS011;32455;43.430;23.136;2023-03-14T01:08:08;9.65;;;6.93;;
46721;SDS011;32455;43.430;23.136;2023-03-14T01:10:54;13.23;;;9.50;;
46721;SDS011;32455;43.430;23.136;2023-03-14T01:13:39;6.93;;;5.65;;
46721;SDS011;32455;43.430;23.136;2023-03-14T01:16:25;7.03;;;5.88;;
46721;SDS011;32455;43.430;23.136;2023-03-14T01:19:12;8.50;;;7.13;;
46721;SDS011;32455;43.430;23.136;2023-03-14T01:21:57;7.22;;;6.20;;
46721;SDS011;32455;43.430;23.136;2023-03-14T01:24:43;7.30;;;5.85;;
46721;SDS011;32455;43.430;23.136;2023-03-14T01:27:28;5.57;;;4.68;;
46721;SDS011;32455;43.430;23.136;2023-03-14T01:30:14;7.82;;;4.47;;
46721;SDS011;32455;43.430;23.136;2023-03-14T01:32:59;5.38;;;3.88;;
46721;SDS011;32455;43.430;23.136;2023-03-14T01:35:45;7.80;;;4.00;;
46721;SDS011;32455;43.430;23.136;2023-03-14T01:38:31;5.72;;;4.97;;
46721;SDS011;32455;43.430;23.136;2023-03-14T01:41:18;7.70;;;6.38;;
46721;SDS011;32455;43.430;23.136;2023-03-14T01:44:05;7.10;;;6.00;;
46721;SDS011;32455;43.430;23.136;2023-03-14T01:46:53;7.70;;;5.47;;
46721;SDS011;32455;43.430;23.136;2023-03-14T01:49:39;6.32;;;4.75;;
46721;SDS011;32455;43.430;23.136;2023-03-14T01:52:44;8.70;;;4.90;;
46721;SDS011;32455;43.430;23.136;2023-03-14T01:55:33;7.22;;;5.85;;
46721;SDS011;32455;43.430;23.136;2023-03-14T01:58:18;7.85;;;5.53;;
46721;SDS011;32455;43.430;23.136;2023-03-14T02:01:05;7.85;;;4.65;;
46721;SDS011;32455;43.430;23.136;2023-03-14T02:03:57;5.45;;;4.20;;
46721;SDS011;32455;43.430;23.136;2023-03-14T02:10:02;5.32;;;4.05;;
46721;SDS011;32455;43.430;23.136;2023-03-14T02:12:48;5.07;;;4.30;;
46721;SDS011;32455;43.430;23.136;2023-03-14T02:15:35;6.13;;;4.30;;
46721;SDS011;32455;43.430;23.136;2023-03-14T02:18:21;6.18;;;3.90;;
46721;SDS011;32455;43.430;23.136;2023-03-14T02:21:12;5.30;;;3.90;;
46721;SDS011;32455;43.430;23.136;2023-03-14T02:24:17;5.43;;;4.15;;
46721;SDS011;32455;43.430;23.136;2023-03-14T02:27:29;6.70;;;4.70;;
46721;SDS011;32455;43.430;23.136;2023-03-14T02:30:17;6.65;;;4.63;;
46721;SDS011;32455;43.430;23.136;2023-03-14T02:33:05;8.00;;;6.10;;
46721;SDS011;32455;43.430;23.136;2023-03-14T02:35:55;6.38;;;4.97;;
46721;SDS011;32455;43.430;23.136;2023-03-14T02:39:03;7.85;;;5.13;;
46721;SDS011;32455;43.430;23.136;2023-03-14T02:42:04;7.28;;;4.03;;
46721;SDS011;32455;43.430;23.136;2023-03-14T02:44:53;5.50;;;4.47;;
46721;SDS011;32455;43.430;23.136;2023-03-14T02:47:42;4.97;;;4.15;;
46721;SDS011;32455;43.430;23.136;2023-03-14T02:50:29;6.10;;;4.57;;
46721;SDS011;32455;43.430;23.136;2023-03-14T02:53:18;6.05;;;4.38;;
46721;SDS011;32455;43.430;23.136;2023-03-14T02:56:05;8.85;;;4.47;;
46721;SDS011;32455;43.430;23.136;2023-03-14T02:58:50;5.18;;;4.30;;
46721;SDS011;32455;43.430;23.136;2023-03-14T03:01:35;8.30;;;5.07;;
46721;SDS011;32455;43.430;23.136;2023-03-14T03:04:20;8.32;;;5.32;;
46721;SDS011;32455;43.430;23.136;2023-03-14T03:07:06;8.35;;;5.50;;
46721;SDS011;32455;43.430;23.136;2023-03-14T03:09:51;7.68;;;6.43;;
46721;SDS011;32455;43.430;23.136;2023-03-14T03:12:36;8.30;;;5.78;;
46721;SDS011;32455;43.430;23.136;2023-03-14T03:15:22;8.90;;;6.63;;
46721;SDS011;32455;43.430;23.136;2023-03-14T03:18:08;26.92;;;14.13;;
46721;SDS011;32455;43.430;23.136;2023-03-14T03:20:54;24.63;;;13.18;;
46721;SDS011;32455;43.430;23.136;2023-03-14T03:23:39;15.05;;;9.27;;
46721;SDS011;32455;43.430;23.136;2023-03-14T03:26:24;9.27;;;6.65;;
46721;SDS011;32455;43.430;23.136;2023-03-14T03:29:10;9.20;;;6.40;;
46721;SDS011;32455;43.430;23.136;2023-03-14T03:31:55;10.73;;;6.47;;
46721;SDS011;32455;43.430;23.136;2023-03-14T03:34:41;8.80;;;5.97;;
46721;SDS011;32455;43.430;23.136;2023-03-14T03:37:27;7.47;;;5.43;;
46721;SDS011;32455;43.430;23.136;2023-03-14T03:40:12;27.90;;;17.88;;
46721;SDS011;32455;43.430;23.136;2023-03-14T03:42:58;35.05;;;20.75;;
46721;SDS011;32455;43.430;23.136;2023-03-14T03:45:44;14.52;;;9.50;;
46721;SDS011;32455;43.430;23.136;2023-03-14T03:48:29;10.75;;;7.15;;
46721;SDS011;32455;43.430;23.136;2023-03-14T03:51:16;11.63;;;7.05;;
46721;SDS011;32455;43.430;23.136;2023-03-14T03:54:01;9.00;;;6.60;;
46721;SDS011;32455;43.430;23.136;2023-03-14T03:56:46;7.80;;;6.13;;
46721;SDS011;32455;43.430;23.136;2023-03-14T03:59:31;8.02;;;5.82;;
46721;SDS011;32455;43.430;23.136;2023-03-14T04:02:16;8.70;;;6.10;;
46721;SDS011;32455;43.430;23.136;2023-03-14T04:05:15;7.20;;;5.47;;
46721;SDS011;32455;43.430;23.136;2023-03-14T04:08:00;7.00;;;5.65;;
46721;SDS011;32455;43.430;23.136;2023-03-14T04:10:46;6.88;;;5.38;;
46721;SDS011;32455;43.430;23.136;2023-03-14T04:13:31;5.78;;;5.03;;
46721;SDS011;32455;43.430;23.136;2023-03-14T04:16:18;7.55;;;5.55;;
46721;SDS011;32455;43.430;23.136;2023-03-14T04:19:05;6.80;;;6.10;;
46721;SDS011;32455;43.430;23.136;2023-03-14T04:21:51;7.55;;;5.30;;
46721;SDS011;32455;43.430;23.136;2023-03-14T04:24:36;6.38;;;5.50;;
46721;SDS011;32455;43.430;23.136;2023-03-14T04:27:21;6.57;;;5.25;;
46721;SDS011;32455;43.430;23.136;2023-03-14T04:30:07;8.98;;;6.28;;
46721;SDS011;32455;43.430;23.136;2023-03-14T04:32:53;13.25;;;8.45;;
46721;SDS011;32455;43.430;23.136;2023-03-14T04:35:38;21.10;;;15.00;;
46721;SDS011;32455;43.430;23.136;2023-03-14T04:38:23;9.02;;;6.50;;
46721;SDS011;32455;43.430;23.136;2023-03-14T04:41:09;7.50;;;5.95;;
46721;SDS011;32455;43.430;23.136;2023-03-14T04:43:53;9.55;;;4.68;;
46721;SDS011;32455;43.430;23.136;2023-03-14T04:46:38;5.85;;;4.95;;
46721;SDS011;32455;43.430;23.136;2023-03-14T04:49:24;7.53;;;4.97;;
46721;SDS011;32455;43.430;23.136;2023-03-14T04:52:09;5.75;;;4.60;;
46721;SDS011;32455;43.430;23.136;2023-03-14T04:54:54;6.68;;;4.68;;
46721;SDS011;32455;43.430;23.136;2023-03-14T04:57:40;9.10;;;4.88;;
46721;SDS011;32455;43.430;23.136;2023-03-14T05:00:25;6.47;;;4.95;;
46721;SDS011;32455;43.430;23.136;2023-03-14T05:03:10;7.95;;;4.95;;
46721;SDS011;32455;43.430;23.136;2023-03-14T05:05:56;6.25;;;5.07;;
46721;SDS011;32455;43.430;23.136;2023-03-14T05:08:43;7.32;;;5.18;;
46721;SDS011;32455;43.430;23.136;2023-03-14T05:11:29;7.85;;;5.78;;
46721;SDS011;32455;43.430;23.136;2023-03-14T05:14:15;11.13;;;5.70;;
46721;SDS011;32455;43.430;23.136;2023-03-14T05:17:00;14.23;;;7.65;;
46721;SDS011;32455;43.430;23.136;2023-03-14T05:19:46;15.98;;;6.40;;
46721;SDS011;32455;43.430;23.136;2023-03-14T05:22:32;10.13;;;5.50;;
46721;SDS011;32455;43.430;23.136;2023-03-14T05:25:18;11.65;;;7.03;;
46721;SDS011;32455;43.430;23.136;2023-03-14T05:28:03;13.30;;;8.00;;
46721;SDS011;32455;43.430;23.136;2023-03-14T05:30:48;11.00;;;7.15;;
46721;SDS011;32455;43.430;23.136;2023-03-14T05:33:34;15.00;;;7.70;;
46721;SDS011;32455;43.430;23.136;2023-03-14T05:36:19;11.50;;;7.35;;
46721;SDS011;32455;43.430;23.136;2023-03-14T05:39:05;12.25;;;6.32;;
46721;SDS011;32455;43.430;23.136;2023-03-14T05:41:50;13.15;;;7.15;;
46721;SDS011;32455;43.430;23.136;2023-03-14T05:44:36;12.05;;;7.97;;
46721;SDS011;32455;43.430;23.136;2023-03-14T05:47:21;14.07;;;7.97;;
46721;SDS011;32455;43.430;23.136;2023-03-14T05:50:06;10.95;;;6.63;;
46721;SDS011;32455;43.430;23.136;2023-03-14T05:52:53;15.25;;;6.65;;
46721;SDS011;32455;43.430;23.136;2023-03-14T05:55:38;8.98;;;5.93;;
46721;SDS011;32455;43.430;23.136;2023-03-14T05:58:24;9.70;;;5.78;;
46721;SDS011;32455;43.430;23.136;2023-03-14T06:01:09;8.10;;;5.68;;
46721;SDS011;32455;43.430;23.136;2023-03-14T06:03:54;8.23;;;6.03;;
46721;SDS011;32455;43.430;23.136;2023-03-14T06:06:39;8.20;;;6.10;;
46721;SDS011;32455;43.430;23.136;2023-03-14T06:09:25;8.70;;;6.63;;
46721;SDS011;32455;43.430;23.136;2023-03-14T06:12:11;10.05;;;6.65;;
46721;SDS011;32455;43.430;23.136;2023-03-14T06:14:56;9.18;;;6.68;;
46721;SDS011;32455;43.430;23.136;2023-03-14T06:17:41;8.77;;;5.93;;
46721;SDS011;32455;43.430;23.136;2023-03-14T06:20:26;9.10;;;6.30;;
46721;SDS011;32455;43.430;23.136;2023-03-14T06:23:11;10.30;;;6.35;;
46721;SDS011;32455;43.430;23.136;2023-03-14T06:25:56;12.25;;;6.65;;
46721;SDS011;32455;43.430;23.136;2023-03-14T06:28:41;7.32;;;6.00;;
46721;SDS011;32455;43.430;23.136;2023-03-14T06:31:26;10.57;;;6.38;;
46721;SDS011;32455;43.430;23.136;2023-03-14T06:34:12;11.38;;;7.20;;
46721;SDS011;32455;43.430;23.136;2023-03-14T06:36:58;7.10;;;5.82;;
46721;SDS011;32455;43.430;23.136;2023-03-14T06:39:44;8.20;;;5.78;;
46721;SDS011;32455;43.430;23.136;2023-03-14T06:42:30;10.23;;;6.15;;
46721;SDS011;32455;43.430;23.136;2023-03-14T06:45:15;8.60;;;5.72;;
46721;SDS011;32455;43.430;23.136;2023-03-14T06:48:01;5.93;;;5.22;;
46721;SDS011;32455;43.430;23.136;2023-03-14T06:50:50;6.85;;;5.28;;
46721;SDS011;32455;43.430;23.136;2023-03-14T06:53:36;7.07;;;5.53;;
46721;SDS011;32455;43.430;23.136;2023-03-14T06:56:21;9.75;;;5.90;;
46721;SDS011;32455;43.430;23.136;2023-03-14T06:59:06;11.43;;;7.13;;
46721;SDS011;32455;43.430;23.136;2023-03-14T07:01:52;11.82;;;8.35;;
46721;SDS011;32455;43.430;23.136;2023-03-14T07:04:37;12.82;;;8.63;;
46721;SDS011;32455;43.430;23.136;2023-03-14T07:07:23;14.88;;;10.30;;
46721;SDS011;32455;43.430;23.136;2023-03-14T07:10:09;17.80;;;10.70;;
46721;SDS011;32455;43.430;23.136;2023-03-14T07:12:54;14.00;;;10.25;;
46721;SDS011;32455;43.430;23.136;2023-03-14T07:15:40;13.93;;;10.60;;
46721;SDS011;32455;43.430;23.136;2023-03-14T07:18:25;12.88;;;10.70;;
46721;SDS011;32455;43.430;23.136;2023-03-14T07:21:10;18.75;;;10.48;;
46721;SDS011;32455;43.430;23.136;2023-03-14T07:23:56;14.32;;;11.02;;
46721;SDS011;32455;43.430;23.136;2023-03-14T07:26:42;14.32;;;9.82;;
46721;SDS011;32455;43.430;23.136;2023-03-14T07:29:27;13.57;;;9.40;;
46721;SDS011;32455;43.430;23.136;2023-03-14T07:32:13;13.02;;;9.85;;
46721;SDS011;32455;43.430;23.136;2023-03-14T07:34:59;12.70;;;10.45;;
46721;SDS011;32455;43.430;23.136;2023-03-14T07:37:45;13.60;;;9.77;;
46721;SDS011;32455;43.430;23.136;2023-03-14T07:40:30;12.35;;;9.48;;
46721;SDS011;32455;43.430;23.136;2023-03-14T07:43:16;11.65;;;9.20;;
46721;SDS011;32455;43.430;23.136;2023-03-14T07:46:01;12.98;;;9.85;;
46721;SDS011;32455;43.430;23.136;2023-03-14T07:48:47;13.63;;;9.05;;
46721;SDS011;32455;43.430;23.136;2023-03-14T07:51:32;11.50;;;8.93;;
46721;SDS011;32455;43.430;23.136;2023-03-14T07:54:17;13.07;;;8.65;;
46721;SDS011;32455;43.430;23.136;2023-03-14T07:57:02;12.30;;;9.02;;
46721;SDS011;32455;43.430;23.136;2023-03-14T07:59:48;10.65;;;8.57;;
46721;SDS011;32455;43.430;23.136;2023-03-14T08:02:34;12.00;;;9.88;;
46721;SDS011;32455;43.430;23.136;2023-03-14T08:05:19;14.18;;;9.13;;
46721;SDS011;32455;43.430;23.136;2023-03-14T08:08:05;13.38;;;10.07;;
46721;SDS011;32455;43.430;23.136;2023-03-14T08:10:51;12.55;;;9.98;;
46721;SDS011;32455;43.430;23.136;2023-03-14T08:13:36;13.43;;;9.25;;
46721;SDS011;32455;43.430;23.136;2023-03-14T08:16:22;12.15;;;9.85;;
46721;SDS011;32455;43.430;23.136;2023-03-14T08:19:07;14.48;;;10.10;;
46721;SDS011;32455;43.430;23.136;2023-03-14T08:21:53;13.63;;;10.38;;
46721;SDS011;32455;43.430;23.136;2023-03-14T08:24:39;16.65;;;10.18;;
46721;SDS011;32455;43.430;23.136;2023-03-14T08:27:25;12.82;;;9.27;;
46721;SDS011;32455;43.430;23.136;2023-03-14T08:30:12;14.52;;;9.65;;
46721;SDS011;32455;43.430;23.136;2023-03-14T08:32:59;15.70;;;9.80;;
46721;SDS011;32455;43.430;23.136;2023-03-14T08:35:45;13.00;;;8.95;;
46721;SDS011;32455;43.430;23.136;2023-03-14T08:38:30;12.10;;;9.00;;
46721;SDS011;32455;43.430;23.136;2023-03-14T08:41:16;11.93;;;9.18;;
46721;SDS011;32455;43.430;23.136;2023-03-14T08:44:01;14.20;;;9.10;;
46721;SDS011;32455;43.430;23.136;2023-03-14T08:46:46;12.80;;;8.45;;
46721;SDS011;32455;43.430;23.136;2023-03-14T08:49:32;14.65;;;8.20;;
46721;SDS011;32455;43.430;23.136;2023-03-14T08:52:17;11.63;;;7.88;;
46721;SDS011;32455;43.430;23.136;2023-03-14T08:55:03;9.80;;;8.30;;
46721;SDS011;32455;43.430;23.136;2023-03-14T08:57:49;11.90;;;8.13;;
46721;SDS011;32455;43.430;23.136;2023-03-14T09:00:34;11.13;;;8.18;;
46721;SDS011;32455;43.430;23.136;2023-03-14T09:03:20;13.68;;;8.60;;
46721;SDS011;32455;43.430;23.136;2023-03-14T09:06:08;11.20;;;8.95;;
46721;SDS011;32455;43.430;23.136;2023-03-14T09:08:55;8.70;;;7.55;;
46721;SDS011;32455;43.430;23.136;2023-03-14T09:11:42;11.63;;;8.25;;
46721;SDS011;32455;43.430;23.136;2023-03-14T09:14:28;13.27;;;8.27;;
46721;SDS011;32455;43.430;23.136;2023-03-14T09:17:13;9.68;;;7.88;;
46721;SDS011;32455;43.430;23.136;2023-03-14T09:20:00;11.07;;;7.60;;
46721;SDS011;32455;43.430;23.136;2023-03-14T09:22:46;11.90;;;7.82;;
46721;SDS011;32455;43.430;23.136;2023-03-14T09:25:32;9.18;;;7.13;;
46721;SDS011;32455;43.430;23.136;2023-03-14T09:28:17;8.88;;;7.47;;
46721;SDS011;32455;43.430;23.136;2023-03-14T09:31:06;8.05;;;7.25;;
46721;SDS011;32455;43.430;23.136;2023-03-14T09:33:52;9.18;;;6.68;;
46721;SDS011;32455;43.430;23.136;2023-03-14T09:36:37;8.93;;;7.38;;
46721;SDS011;32455;43.430;23.136;2023-03-14T09:39:24;12.10;;;7.45;;
46721;SDS011;32455;43.430;23.136;2023-03-14T09:42:11;8.07;;;6.65;;
46721;SDS011;32455;43.430;23.136;2023-03-14T09:45:00;8.88;;;6.30;;
46721;SDS011;32455;43.430;23.136;2023-03-14T09:47:50;10.45;;;6.55;;
46721;SDS011;32455;43.430;23.136;2023-03-14T09:50:40;10.43;;;7.57;;
46721;SDS011;32455;43.430;23.136;2023-03-14T09:53:41;9.70;;;6.85;;
46721;SDS011;32455;43.430;23.136;2023-03-14T09:56:32;14.35;;;8.32;;
46721;SDS011;32455;43.430;23.136;2023-03-14T09:59:18;9.65;;;8.20;;
46721;SDS011;32455;43.430;23.136;2023-03-14T10:02:18;10.35;;;7.75;;
46721;SDS011;32455;43.430;23.136;2023-03-14T10:05:08;11.30;;;8.57;;
46721;SDS011;32455;43.430;23.136;2023-03-14T10:08:03;10.75;;;8.63;;
46721;SDS011;32455;43.430;23.136;2023-03-14T10:10:50;11.32;;;8.20;;
46721;SDS011;32455;43.430;23.136;2023-03-14T10:13:35;10.95;;;7.90;;
46721;SDS011;32455;43.430;23.136;2023-03-14T10:16:48;11.07;;;8.88;;
46721;SDS011;32455;43.430;23.136;2023-03-14T10:19:34;11.05;;;8.93;;
46721;SDS011;32455;43.430;23.136;2023-03-14T10:22:20;10.32;;;7.80;;
46721;SDS011;32455;43.430;23.136;2023-03-14T10:25:10;9.57;;;8.20;;
46721;SDS011;32455;43.430;23.136;2023-03-14T10:28:43;14.73;;;8.73;;
46721;SDS011;32455;43.430;23.136;2023-03-14T10:31:50;12.27;;;8.82;;
46721;SDS011;32455;43.430;23.136;2023-03-14T10:34:38;12.15;;;8.27;;
46721;SDS011;32455;43.430;23.136;2023-03-14T10:37:24;12.00;;;8.88;;
46721;SDS011;32455;43.430;23.136;2023-03-14T10:40:12;12.02;;;8.90;;
46721;SDS011;32455;43.430;23.136;2023-03-14T10:42:59;11.15;;;7.95;;
46721;SDS011;32455;43.430;23.136;2023-03-14T10:45:52;9.25;;;7.10;;
46721;SDS011;32455;43.430;23.136;2023-03-14T10:48:42;9.30;;;7.72;;
46721;SDS011;32455;43.430;23.136;2023-03-14T10:51:30;11.40;;;7.57;;
46721;SDS011;32455;43.430;23.136;2023-03-14T10:54:24;9.30;;;7.15;;
46721;SDS011;32455;43.430;23.136;2023-03-14T10:57:10;10.65;;;8.35;;
46721;SDS011;32455;43.430;23.136;2023-03-14T10:59:57;10.65;;;7.90;;
46721;SDS011;32455;43.430;23.136;2023-03-14T11:02:46;8.38;;;7.18;;
46721;SDS011;32455;43.430;23.136;2023-03-14T11:08:42;9.35;;;7.47;;
46721;SDS011;32455;43.430;23.136;2023-03-14T11:11:51;11.52;;;7.22;;
46721;SDS011;32455;43.430;23.136;2023-03-14T11:14:41;10.18;;;7.13;;
46721;SDS011;32455;43.430;23.136;2023-03-14T11:17:57;12.35;;;7.93;;
46721;SDS011;32455;43.430;23.136;2023-03-14T11:21:01;13.25;;;7.57;;
46721;SDS011;32455;43.430;23.136;2023-03-14T11:29:41;9.52;;;6.55;;
46721;SDS011;32455;43.430;23.136;2023-03-14T11:38:55;9.32;;;6.78;;
46721;SDS011;32455;43.430;23.136;2023-03-14T11:41:47;8.20;;;6.20;;
46721;SDS011;32455;43.430;23.136;2023-03-14T11:44:38;10.05;;;6.28;;
46721;SDS011;32455;43.430;23.136;2023-03-14T11:50:19;10.85;;;6.95;;
46721;SDS011;32455;43.430;23.136;2023-03-14T11:56:01;7.10;;;5.50;;
46721;SDS011;32455;43.430;23.136;2023-03-14T11:58:51;8.75;;;7.28;;
46721;SDS011;32455;43.430;23.136;2023-03-14T12:02:01;10.77;;;7.20;;
46721;SDS011;32455;43.430;23.136;2023-03-14T12:04:55;7.90;;;6.88;;
46721;SDS011;32455;43.430;23.136;2023-03-14T12:10:55;8.57;;;6.43;;
46721;SDS011;32455;43.430;23.136;2023-03-14T12:13:48;9.88;;;6.70;;
46721;SDS011;32455;43.430;23.136;2023-03-14T12:16:37;10.88;;;6.78;;
46721;SDS011;32455;43.430;23.136;2023-03-14T12:22:19;8.20;;;6.13;;
46721;SDS011;32455;43.430;23.136;2023-03-14T12:25:19;13.32;;;7.63;;
46721;SDS011;32455;43.430;23.136;2023-03-14T12:28:21;9.93;;;7.50;;
46721;SDS011;32455;43.430;23.136;2023-03-14T12:40:15;13.13;;;6.75;;
46721;SDS011;32455;43.430;23.136;2023-03-14T12:46:21;8.65;;;6.70;;
46721;SDS011;32455;43.430;23.136;2023-03-14T12:49:10;10.88;;;7.00;;
46721;SDS011;32455;43.430;23.136;2023-03-14T12:51:58;7.43;;;6.63;;
46721;SDS011;32455;43.430;23.136;2023-03-14T12:54:49;11.25;;;7.40;;
46721;SDS011;32455;43.430;23.136;2023-03-14T12:58:02;9.00;;;6.95;;
46721;SDS011;32455;43.430;23.136;2023-03-14T13:01:05;10.95;;;7.30;;
46721;SDS011;32455;43.430;23.136;2023-03-14T13:04:10;8.88;;;7.05;;
46721;SDS011;32455;43.430;23.136;2023-03-14T13:06:57;10.07;;;7.65;;
46721;SDS011;32455;43.430;23.136;2023-03-14T13:09:54;10.77;;;7.10;;
46721;SDS011;32455;43.430;23.136;2023-03-14T13:15:40;11.27;;;7.10;;
46721;SDS011;32455;43.430;23.136;2023-03-14T13:21:22;12.63;;;7.60;;
46721;SDS011;32455;43.430;23.136;2023-03-14T13:27:25;10.15;;;7.68;;
46721;SDS011;32455;43.430;23.136;2023-03-14T13:30:23;11.75;;;8.07;;
46721;SDS011;32455;43.430;23.136;2023-03-14T13:33:16;11.40;;;7.87;;
46721;SDS011;32455;43.430;23.136;2023-03-14T13:36:03;11.55;;;8.38;;
46721;SDS011;32455;43.430;23.136;2023-03-14T13:38:55;11.55;;;7.72;;
46721;SDS011;32455;43.430;23.136;2023-03-14T13:41:42;10.03;;;7.73;;
46721;SDS011;32455;43.430;23.136;2023-03-14T13:44:31;11.05;;;7.25;;
46721;SDS011;32455;43.430;23.136;2023-03-14T13:47:21;12.75;;;7.53;;
46721;SDS011;32455;43.430;23.136;2023-03-14T13:50:15;12.40;;;6.60;;
46721;SDS011;32455;43.430;23.136;2023-03-14T13:53:02;9.77;;;7.53;;
46721;SDS011;32455;43.430;23.136;2023-03-14T13:55:48;9.07;;;6.65;;
46721;SDS011;32455;43.430;23.136;2023-03-14T13:58:36;13.20;;;7.47;;
46721;SDS011;32455;43.430;23.136;2023-03-14T14:01:24;12.02;;;7.70;;
46721;SDS011;32455;43.430;23.136;2023-03-14T14:04:17;11.40;;;7.40;;
46721;SDS011;32455;43.430;23.136;2023-03-14T14:07:10;10.63;;;6.82;;
46721;SDS011;32455;43.430;23.136;2023-03-14T14:10:02;13.88;;;7.10;;
46721;SDS011;32455;43.430;23.136;2023-03-14T14:12:51;8.95;;;6.93;;
46721;SDS011;32455;43.430;23.136;2023-03-14T14:15:45;12.90;;;6.95;;
46721;SDS011;32455;43.430;23.136;2023-03-14T14:18:35;11.20;;;7.47;;
46721;SDS011;32455;43.430;23.136;2023-03-14T14:21:21;14.02;;;7.70;;
46721;SDS011;32455;43.430;23.136;2023-03-14T14:24:07;9.02;;;7.07;;
46721;SDS011;32455;43.430;23.136;2023-03-14T14:27:00;13.98;;;6.60;;
46721;SDS011;32455;43.430;23.136;2023-03-14T14:29:56;11.25;;;6.90;;
46721;SDS011;32455;43.430;23.136;2023-03-14T14:36:29;8.13;;;6.57;;
46721;SDS011;32455;43.430;23.136;2023-03-14T14:39:23;9.48;;;7.70;;
46721;SDS011;32455;43.430;23.136;2023-03-14T14:42:14;11.18;;;7.43;;
46721;SDS011;32455;43.430;23.136;2023-03-14T14:45:02;11.10;;;7.38;;
46721;SDS011;32455;43.430;23.136;2023-03-14T14:47:54;10.95;;;7.25;;
46721;SDS011;32455;43.430;23.136;2023-03-14T14:50:57;12.25;;;8.07;;
46721;SDS011;32455;43.430;23.136;2023-03-14T14:53:46;12.45;;;6.97;;
46721;SDS011;32455;43.430;23.136;2023-03-14T14:56:34;13.68;;;7.15;;
46721;SDS011;32455;43.430;23.136;2023-03-14T14:59:28;11.52;;;7.28;;
46721;SDS011;32455;43.430;23.136;2023-03-14T15:02:30;11.90;;;7.00;;
46721;SDS011;32455;43.430;23.136;2023-03-14T15:05:18;9.60;;;7.13;;
46721;SDS011;32455;43.430;23.136;2023-03-14T15:08:08;9.90;;;6.88;;
46721;SDS011;32455;43.430;23.136;2023-03-14T15:10:57;10.18;;;7.38;;
46721;SDS011;32455;43.430;23.136;2023-03-14T15:13:42;11.50;;;7.50;;
46721;SDS011;32455;43.430;23.136;2023-03-14T15:16:28;9.32;;;7.20;;
46721;SDS011;32455;43.430;23.136;2023-03-14T15:19:19;13.35;;;7.20;;
46721;SDS011;32455;43.430;23.136;2023-03-14T15:22:13;9.77;;;7.70;;
46721;SDS011;32455;43.430;23.136;2023-03-14T15:24:58;9.85;;;7.75;;
46721;SDS011;32455;43.430;23.136;2023-03-14T15:27:44;10.68;;;7.90;;
46721;SDS011;32455;43.430;23.136;2023-03-14T15:30:30;9.57;;;8.30;;
46721;SDS011;32455;43.430;23.136;2023-03-14T15:33:15;11.57;;;7.75;;
46721;SDS011;32455;43.430;23.136;2023-03-14T15:36:01;12.68;;;8.65;;
46721;SDS011;32455;43.430;23.136;2023-03-14T15:38:48;16.20;;;8.23;;
46721;SDS011;32455;43.430;23.136;2023-03-14T15:41:34;9.85;;;7.65;;
46721;SDS011;32455;43.430;23.136;2023-03-14T15:44:19;9.77;;;7.32;;
46721;SDS011;32455;43.430;23.136;2023-03-14T15:47:05;8.80;;;7.53;;
46721;SDS011;32455;43.430;23.136;2023-03-14T15:49:51;11.63;;;7.82;;
46721;SDS011;32455;43.430;23.136;2023-03-14T15:52:37;13.48;;;7.82;;
46721;SDS011;32455;43.430;23.136;2023-03-14T15:55:22;10.32;;;7.68;;
46721;SDS011;32455;43.430;23.136;2023-03-14T15:58:17;15.90;;;11.07;;
46721;SDS011;32455;43.430;23.136;2023-03-14T16:01:04;36.50;;;22.30;;
46721;SDS011;32455;43.430;23.136;2023-03-14T16:03:49;43.33;;;28.20;;
46721;SDS011;32455;43.430;23.136;2023-03-14T16:06:37;30.48;;;23.83;;
46721;SDS011;32455;43.430;23.136;2023-03-14T16:09:22;24.60;;;17.42;;
46721;SDS011;32455;43.430;23.136;2023-03-14T16:12:09;17.30;;;11.05;;
46721;SDS011;32455;43.430;23.136;2023-03-14T16:14:55;13.27;;;9.18;;
46721;SDS011;32455;43.430;23.136;2023-03-14T16:17:41;14.43;;;8.18;;
46721;SDS011;32455;43.430;23.136;2023-03-14T16:20:27;14.50;;;6.47;;
46721;SDS011;32455;43.430;23.136;2023-03-14T16:23:13;14.25;;;5.85;;
46721;SDS011;32455;43.430;23.136;2023-03-14T16:26:02;26.13;;;9.05;;
46721;SDS011;32455;43.430;23.136;2023-03-14T16:28:52;16.92;;;6.20;;
46721;SDS011;32455;43.430;23.136;2023-03-14T16:31:38;15.18;;;6.13;;
46721;SDS011;32455;43.430;23.136;2023-03-14T16:34:27;14.60;;;5.35;;
46721;SDS011;32455;43.430;23.136;2023-03-14T16:37:12;17.45;;;5.70;;
46721;SDS011;32455;43.430;23.136;2023-03-14T16:39:57;9.57;;;4.40;;
46721;SDS011;32455;43.430;23.136;2023-03-14T16:42:43;9.73;;;5.55;;
46721;SDS011;32455;43.430;23.136;2023-03-14T16:45:29;13.02;;;5.50;;
46721;SDS011;32455;43.430;23.136;2023-03-14T16:48:15;11.25;;;5.03;;
46721;SDS011;32455;43.430;23.136;2023-03-14T16:51:00;6.72;;;5.07;;
46721;SDS011;32455;43.430;23.136;2023-03-14T16:53:46;8.80;;;6.00;;
46721;SDS011;32455;43.430;23.136;2023-03-14T16:56:31;14.05;;;8.35;;
46721;SDS011;32455;43.430;23.136;2023-03-14T16:59:16;18.40;;;10.93;;
46721;SDS011;32455;43.430;23.136;2023-03-14T17:02:01;15.38;;;9.77;;
46721;SDS011;32455;43.430;23.136;2023-03-14T17:04:46;15.32;;;9.40;;
46721;SDS011;32455;43.430;23.136;2023-03-14T17:07:32;16.40;;;11.18;;
46721;SDS011;32455;43.430;23.136;2023-03-14T17:10:17;32.53;;;20.65;;
46721;SDS011;32455;43.430;23.136;2023-03-14T17:13:02;30.23;;;19.67;;
46721;SDS011;32455;43.430;23.136;2023-03-14T17:15:51;46.17;;;26.50;;
46721;SDS011;32455;43.430;23.136;2023-03-14T17:18:37;68.68;;;39.10;;
46721;SDS011;32455;43.430;23.136;2023-03-14T17:21:22;44.97;;;30.00;;
46721;SDS011;32455;43.430;23.136;2023-03-14T17:24:08;45.50;;;27.25;;